sensor_id;sensor_type;location;lat;lon;timestamp;P1;durP1;ratioP1;P2;durP2;ratioP2
527;SDS011;250;47.712;7.508;2022-11-18T00:00:06;3.70;;;1.60;;
527;SDS011;250;47.712;7.508;2022-11-18T00:02:34;1.20;;;0.57;;
527;SDS011;250;47.712;7.508;2022-11-18T00:05:01;2.10;;;0.80;;
527;SDS011;250;47.712;7.508;2022-11-18T00:07:29;2.10;;;0.50;;
527;SDS011;250;47.712;7.508;2022-11-18T00:09:56;1.10;;;0.50;;
527;SDS011;250;47.712;7.508;2022-11-18T00:12:23;1.93;;;0.50;;
527;SDS011;250;47.712;7.508;2022-11-18T00:15:09;2.30;;;0.50;;
527;SDS011;250;47.712;7.508;2022-11-18T00:17:36;1.30;;;0.50;;
527;SDS011;250;47.712;7.508;2022-11-18T00:20:03;3.20;;;1.63;;
527;SDS011;250;47.712;7.508;2022-11-18T00:22:32;3.40;;;1.80;;
527;SDS011;250;47.712;7.508;2022-11-18T00:24:59;1.80;;;0.90;;
527;SDS011;250;47.712;7.508;2022-11-18T00:27:28;4.03;;;1.70;;
527;SDS011;250;47.712;7.508;2022-11-18T00:29:55;4.83;;;2.10;;
527;SDS011;250;47.712;7.508;2022-11-18T00:32:22;4.80;;;2.57;;
527;SDS011;250;47.712;7.508;2022-11-18T00:34:49;6.10;;;2.63;;
527;SDS011;250;47.712;7.508;2022-11-18T00:37:16;3.37;;;1.10;;
527;SDS011;250;47.712;7.508;2022-11-18T00:39:45;2.63;;;0.87;;
527;SDS011;250;47.712;7.508;2022-11-18T00:42:12;1.67;;;0.70;;
527;SDS011;250;47.712;7.508;2022-11-18T00:44:56;4.50;;;1.90;;
527;SDS011;250;47.712;7.508;2022-11-18T00:47:23;2.10;;;0.80;;
527;SDS011;250;47.712;7.508;2022-11-18T00:49:50;2.40;;;1.10;;
527;SDS011;250;47.712;7.508;2022-11-18T00:52:17;1.33;;;0.43;;
527;SDS011;250;47.712;7.508;2022-11-18T00:54:46;1.53;;;0.67;;
527;SDS011;250;47.712;7.508;2022-11-18T00:57:13;1.70;;;0.87;;
527;SDS011;250;47.712;7.508;2022-11-18T00:59:39;2.27;;;1.23;;
527;SDS011;250;47.712;7.508;2022-11-18T01:02:06;1.30;;;0.40;;
527;SDS011;250;47.712;7.508;2022-11-18T01:04:34;1.40;;;0.40;;
527;SDS011;250;47.712;7.508;2022-11-18T01:07:01;2.60;;;0.93;;
527;SDS011;250;47.712;7.508;2022-11-18T01:09:28;1.23;;;0.50;;
527;SDS011;250;47.712;7.508;2022-11-18T01:11:57;1.10;;;0.40;;
527;SDS011;250;47.712;7.508;2022-11-18T01:14:41;1.20;;;0.40;;
527;SDS011;250;47.712;7.508;2022-11-18T01:17:08;2.10;;;0.63;;
527;SDS011;250;47.712;7.508;2022-11-18T01:19:35;1.93;;;0.50;;
527;SDS011;250;47.712;7.508;2022-11-18T01:22:02;1.00;;;0.40;;
527;SDS011;250;47.712;7.508;2022-11-18T01:24:29;1.80;;;0.60;;
527;SDS011;250;47.712;7.508;2022-11-18T01:26:58;1.63;;;0.60;;
527;SDS011;250;47.712;7.508;2022-11-18T01:29:26;2.03;;;0.70;;
527;SDS011;250;47.712;7.508;2022-11-18T01:31:53;2.80;;;0.63;;
527;SDS011;250;47.712;7.508;2022-11-18T01:34:20;1.23;;;0.57;;
527;SDS011;250;47.712;7.508;2022-11-18T01:36:47;2.37;;;0.60;;
527;SDS011;250;47.712;7.508;2022-11-18T01:39:17;1.67;;;0.83;;
527;SDS011;250;47.712;7.508;2022-11-18T01:41:44;1.93;;;1.20;;
527;SDS011;250;47.712;7.508;2022-11-18T01:47:13;3.93;;;0.60;;
527;SDS011;250;47.712;7.508;2022-11-18T01:49:40;2.33;;;0.77;;
527;SDS011;250;47.712;7.508;2022-11-18T01:52:07;4.73;;;0.70;;
527;SDS011;250;47.712;7.508;2022-11-18T01:54:35;1.33;;;0.50;;
527;SDS011;250;47.712;7.508;2022-11-18T01:57:06;2.60;;;0.93;;
527;SDS011;250;47.712;7.508;2022-11-18T01:59:38;1.63;;;0.73;;
527;SDS011;250;47.712;7.508;2022-11-18T02:02:09;1.33;;;0.60;;
527;SDS011;250;47.712;7.508;2022-11-18T02:04:39;1.50;;;0.57;;
527;SDS011;250;47.712;7.508;2022-11-18T02:07:08;1.50;;;0.60;;
527;SDS011;250;47.712;7.508;2022-11-18T02:09:36;3.20;;;0.73;;
527;SDS011;250;47.712;7.508;2022-11-18T02:12:04;3.40;;;0.80;;
527;SDS011;250;47.712;7.508;2022-11-18T02:14:33;1.30;;;0.57;;
527;SDS011;250;47.712;7.508;2022-11-18T02:17:03;2.23;;;0.83;;
527;SDS011;250;47.712;7.508;2022-11-18T02:28:59;1.93;;;0.70;;
527;SDS011;250;47.712;7.508;2022-11-18T02:31:33;2.17;;;0.70;;
527;SDS011;250;47.712;7.508;2022-11-18T02:34:05;1.60;;;1.00;;
527;SDS011;250;47.712;7.508;2022-11-18T02:36:42;1.90;;;0.60;;
527;SDS011;250;47.712;7.508;2022-11-18T02:39:16;1.30;;;0.50;;
527;SDS011;250;47.712;7.508;2022-11-18T02:41:47;1.40;;;0.60;;
527;SDS011;250;47.712;7.508;2022-11-18T02:44:17;1.20;;;0.50;;
527;SDS011;250;47.712;7.508;2022-11-18T02:46:48;2.20;;;0.60;;
527;SDS011;250;47.712;7.508;2022-11-18T02:49:19;1.20;;;0.40;;
527;SDS011;250;47.712;7.508;2022-11-18T02:51:48;1.27;;;0.40;;
527;SDS011;250;47.712;7.508;2022-11-18T02:54:17;1.50;;;0.50;;
527;SDS011;250;47.712;7.508;2022-11-18T02:56:47;1.77;;;0.60;;
527;SDS011;250;47.712;7.508;2022-11-18T02:59:18;1.30;;;0.40;;
527;SDS011;250;47.712;7.508;2022-11-18T03:01:45;2.33;;;0.50;;
527;SDS011;250;47.712;7.508;2022-11-18T03:04:13;1.50;;;0.50;;
527;SDS011;250;47.712;7.508;2022-11-18T03:06:44;1.40;;;0.50;;
527;SDS011;250;47.712;7.508;2022-11-18T03:09:21;1.10;;;0.40;;
527;SDS011;250;47.712;7.508;2022-11-18T03:11:54;1.80;;;0.60;;
527;SDS011;250;47.712;7.508;2022-11-18T03:14:31;2.20;;;1.03;;
527;SDS011;250;47.712;7.508;2022-11-18T03:17:01;2.73;;;1.30;;
527;SDS011;250;47.712;7.508;2022-11-18T03:19:37;2.13;;;1.20;;
527;SDS011;250;47.712;7.508;2022-11-18T03:22:13;1.80;;;0.90;;
527;SDS011;250;47.712;7.508;2022-11-18T03:24:49;1.53;;;0.70;;
527;SDS011;250;47.712;7.508;2022-11-18T03:27:22;2.03;;;0.77;;
527;SDS011;250;47.712;7.508;2022-11-18T03:29:59;1.30;;;0.50;;
527;SDS011;250;47.712;7.508;2022-11-18T03:32:31;2.03;;;0.40;;
527;SDS011;250;47.712;7.508;2022-11-18T03:35:04;2.33;;;0.70;;
527;SDS011;250;47.712;7.508;2022-11-18T03:37:33;1.30;;;0.50;;
527;SDS011;250;47.712;7.508;2022-11-18T03:40:05;2.00;;;0.60;;
527;SDS011;250;47.712;7.508;2022-11-18T03:42:37;1.20;;;0.50;;
527;SDS011;250;47.712;7.508;2022-11-18T03:45:11;1.40;;;0.50;;
527;SDS011;250;47.712;7.508;2022-11-18T03:47:40;1.83;;;0.40;;
527;SDS011;250;47.712;7.508;2022-11-18T03:50:10;1.30;;;0.50;;
527;SDS011;250;47.712;7.508;2022-11-18T03:52:41;1.67;;;0.50;;
527;SDS011;250;47.712;7.508;2022-11-18T03:55:10;1.20;;;0.40;;
527;SDS011;250;47.712;7.508;2022-11-18T03:57:41;1.40;;;0.40;;
527;SDS011;250;47.712;7.508;2022-11-18T04:00:14;1.87;;;0.50;;
527;SDS011;250;47.712;7.508;2022-11-18T04:02:44;1.47;;;0.50;;
527;SDS011;250;47.712;7.508;2022-11-18T04:05:14;1.33;;;0.50;;
527;SDS011;250;47.712;7.508;2022-11-18T04:07:44;4.03;;;0.40;;
527;SDS011;250;47.712;7.508;2022-11-18T04:10:20;1.63;;;0.40;;
527;SDS011;250;47.712;7.508;2022-11-18T04:12:51;1.00;;;0.30;;
527;SDS011;250;47.712;7.508;2022-11-18T04:15:24;1.00;;;0.40;;
527;SDS011;250;47.712;7.508;2022-11-18T04:17:52;1.43;;;0.43;;
527;SDS011;250;47.712;7.508;2022-11-18T04:20:20;1.20;;;0.50;;
527;SDS011;250;47.712;7.508;2022-11-18T04:22:49;1.07;;;0.40;;
527;SDS011;250;47.712;7.508;2022-11-18T04:25:16;1.10;;;0.30;;
527;SDS011;250;47.712;7.508;2022-11-18T04:27:44;1.20;;;0.33;;
527;SDS011;250;47.712;7.508;2022-11-18T04:30:11;1.93;;;0.70;;
527;SDS011;250;47.712;7.508;2022-11-18T04:32:40;1.00;;;0.33;;
527;SDS011;250;47.712;7.508;2022-11-18T04:35:07;1.00;;;0.30;;
527;SDS011;250;47.712;7.508;2022-11-18T04:37:34;1.53;;;0.60;;
527;SDS011;250;47.712;7.508;2022-11-18T04:40:02;1.40;;;0.50;;
527;SDS011;250;47.712;7.508;2022-11-18T04:42:29;1.23;;;0.40;;
527;SDS011;250;47.712;7.508;2022-11-18T04:44:56;1.47;;;0.70;;
527;SDS011;250;47.712;7.508;2022-11-18T04:47:24;1.23;;;0.40;;
527;SDS011;250;47.712;7.508;2022-11-18T04:49:52;2.00;;;0.70;;
527;SDS011;250;47.712;7.508;2022-11-18T04:52:20;2.07;;;0.50;;
527;SDS011;250;47.712;7.508;2022-11-18T04:54:52;3.57;;;0.40;;
527;SDS011;250;47.712;7.508;2022-11-18T04:57:20;1.50;;;0.50;;
527;SDS011;250;47.712;7.508;2022-11-18T04:59:47;1.20;;;0.67;;
527;SDS011;250;47.712;7.508;2022-11-18T05:02:14;1.83;;;0.50;;
527;SDS011;250;47.712;7.508;2022-11-18T05:04:41;1.50;;;0.50;;
527;SDS011;250;47.712;7.508;2022-11-18T05:07:13;1.07;;;0.47;;
527;SDS011;250;47.712;7.508;2022-11-18T05:09:41;1.20;;;0.50;;
527;SDS011;250;47.712;7.508;2022-11-18T05:12:10;1.97;;;0.30;;
527;SDS011;250;47.712;7.508;2022-11-18T05:14:55;1.10;;;0.50;;
527;SDS011;250;47.712;7.508;2022-11-18T05:17:22;1.10;;;0.40;;
527;SDS011;250;47.712;7.508;2022-11-18T05:19:49;1.00;;;0.40;;
527;SDS011;250;47.712;7.508;2022-11-18T05:22:18;1.20;;;0.63;;
527;SDS011;250;47.712;7.508;2022-11-18T05:24:45;1.70;;;0.80;;
527;SDS011;250;47.712;7.508;2022-11-18T05:27:12;2.50;;;1.00;;
527;SDS011;250;47.712;7.508;2022-11-18T05:29:40;1.40;;;0.67;;
527;SDS011;250;47.712;7.508;2022-11-18T05:32:07;1.80;;;1.00;;
527;SDS011;250;47.712;7.508;2022-11-18T05:34:35;1.40;;;0.40;;
527;SDS011;250;47.712;7.508;2022-11-18T05:37:02;1.70;;;0.80;;
527;SDS011;250;47.712;7.508;2022-11-18T05:39:31;1.43;;;0.70;;
527;SDS011;250;47.712;7.508;2022-11-18T05:41:59;1.57;;;0.87;;
527;SDS011;250;47.712;7.508;2022-11-18T05:44:44;1.00;;;0.40;;
527;SDS011;250;47.712;7.508;2022-11-18T05:47:11;2.20;;;0.60;;
527;SDS011;250;47.712;7.508;2022-11-18T05:49:40;1.70;;;0.40;;
527;SDS011;250;47.712;7.508;2022-11-18T05:52:07;1.40;;;0.50;;
527;SDS011;250;47.712;7.508;2022-11-18T05:54:35;1.10;;;0.40;;
527;SDS011;250;47.712;7.508;2022-11-18T05:57:04;1.17;;;0.43;;
527;SDS011;250;47.712;7.508;2022-11-18T05:59:31;1.77;;;0.43;;
527;SDS011;250;47.712;7.508;2022-11-18T06:01:59;1.20;;;0.53;;
527;SDS011;250;47.712;7.508;2022-11-18T06:04:29;1.10;;;0.40;;
527;SDS011;250;47.712;7.508;2022-11-18T06:07:00;1.40;;;0.40;;
527;SDS011;250;47.712;7.508;2022-11-18T06:09:33;2.80;;;1.83;;
527;SDS011;250;47.712;7.508;2022-11-18T06:12:05;2.50;;;2.03;;
527;SDS011;250;47.712;7.508;2022-11-18T06:14:34;2.43;;;1.17;;
527;SDS011;250;47.712;7.508;2022-11-18T06:17:05;5.80;;;2.10;;
527;SDS011;250;47.712;7.508;2022-11-18T06:19:37;2.97;;;1.70;;
527;SDS011;250;47.712;7.508;2022-11-18T06:22:04;2.80;;;0.70;;
527;SDS011;250;47.712;7.508;2022-11-18T06:24:32;1.67;;;0.90;;
527;SDS011;250;47.712;7.508;2022-11-18T06:27:01;2.23;;;0.87;;
527;SDS011;250;47.712;7.508;2022-11-18T06:29:28;3.37;;;2.47;;
527;SDS011;250;47.712;7.508;2022-11-18T06:31:56;1.87;;;1.20;;
527;SDS011;250;47.712;7.508;2022-11-18T06:34:23;2.43;;;1.63;;
527;SDS011;250;47.712;7.508;2022-11-18T06:36:51;4.23;;;2.83;;
527;SDS011;250;47.712;7.508;2022-11-18T06:39:18;3.07;;;1.50;;
527;SDS011;250;47.712;7.508;2022-11-18T06:41:45;3.73;;;2.37;;
527;SDS011;250;47.712;7.508;2022-11-18T06:44:13;2.77;;;1.70;;
527;SDS011;250;47.712;7.508;2022-11-18T06:46:39;2.97;;;1.87;;
527;SDS011;250;47.712;7.508;2022-11-18T06:49:21;2.47;;;1.30;;
527;SDS011;250;47.712;7.508;2022-11-18T06:51:48;2.30;;;1.00;;
527;SDS011;250;47.712;7.508;2022-11-18T06:54:15;2.53;;;1.27;;
527;SDS011;250;47.712;7.508;2022-11-18T06:56:42;2.03;;;1.10;;
527;SDS011;250;47.712;7.508;2022-11-18T06:59:09;1.50;;;0.97;;
527;SDS011;250;47.712;7.508;2022-11-18T07:01:38;1.90;;;1.00;;
527;SDS011;250;47.712;7.508;2022-11-18T07:04:06;1.77;;;1.10;;
527;SDS011;250;47.712;7.508;2022-11-18T07:06:33;1.73;;;1.20;;
527;SDS011;250;47.712;7.508;2022-11-18T07:09:02;4.37;;;2.60;;
527;SDS011;250;47.712;7.508;2022-11-18T07:11:30;3.70;;;2.97;;
527;SDS011;250;47.712;7.508;2022-11-18T07:13:57;3.50;;;2.10;;
527;SDS011;250;47.712;7.508;2022-11-18T07:16:25;3.70;;;1.70;;
527;SDS011;250;47.712;7.508;2022-11-18T07:18:54;4.70;;;1.90;;
527;SDS011;250;47.712;7.508;2022-11-18T07:21:22;4.47;;;2.70;;
527;SDS011;250;47.712;7.508;2022-11-18T07:23:51;7.67;;;3.50;;
527;SDS011;250;47.712;7.508;2022-11-18T07:26:18;2.13;;;1.33;;
527;SDS011;250;47.712;7.508;2022-11-18T07:28:45;1.70;;;1.00;;
527;SDS011;250;47.712;7.508;2022-11-18T07:31:13;1.87;;;1.10;;
527;SDS011;250;47.712;7.508;2022-11-18T07:33:41;1.80;;;0.80;;
527;SDS011;250;47.712;7.508;2022-11-18T07:36:13;2.23;;;0.83;;
527;SDS011;250;47.712;7.508;2022-11-18T07:38:41;1.60;;;0.87;;
527;SDS011;250;47.712;7.508;2022-11-18T07:41:09;4.13;;;1.90;;
527;SDS011;250;47.712;7.508;2022-11-18T07:43:38;1.80;;;1.00;;
527;SDS011;250;47.712;7.508;2022-11-18T07:46:10;3.40;;;2.03;;
527;SDS011;250;47.712;7.508;2022-11-18T07:48:37;2.40;;;1.37;;
527;SDS011;250;47.712;7.508;2022-11-18T07:51:05;3.80;;;1.77;;
527;SDS011;250;47.712;7.508;2022-11-18T07:53:34;4.50;;;3.33;;
527;SDS011;250;47.712;7.508;2022-11-18T07:56:01;3.50;;;2.77;;
527;SDS011;250;47.712;7.508;2022-11-18T07:58:29;4.40;;;3.00;;
527;SDS011;250;47.712;7.508;2022-11-18T08:00:56;3.10;;;1.90;;
527;SDS011;250;47.712;7.508;2022-11-18T08:03:24;2.20;;;1.13;;
527;SDS011;250;47.712;7.508;2022-11-18T08:05:52;2.40;;;1.80;;
527;SDS011;250;47.712;7.508;2022-11-18T08:08:19;3.23;;;2.10;;
527;SDS011;250;47.712;7.508;2022-11-18T08:10:48;4.30;;;1.67;;
527;SDS011;250;47.712;7.508;2022-11-18T08:13:15;3.50;;;1.63;;
527;SDS011;250;47.712;7.508;2022-11-18T08:15:42;5.40;;;2.47;;
527;SDS011;250;47.712;7.508;2022-11-18T08:18:09;2.60;;;1.63;;
527;SDS011;250;47.712;7.508;2022-11-18T08:20:36;8.30;;;1.97;;
527;SDS011;250;47.712;7.508;2022-11-18T08:23:03;2.73;;;0.90;;
527;SDS011;250;47.712;7.508;2022-11-18T08:25:30;4.10;;;1.37;;
527;SDS011;250;47.712;7.508;2022-11-18T08:27:59;2.73;;;0.90;;
527;SDS011;250;47.712;7.508;2022-11-18T08:30:26;1.60;;;0.80;;
527;SDS011;250;47.712;7.508;2022-11-18T08:32:53;2.23;;;1.17;;
527;SDS011;250;47.712;7.508;2022-11-18T08:35:20;2.97;;;1.03;;
527;SDS011;250;47.712;7.508;2022-11-18T08:37:47;1.60;;;0.80;;
527;SDS011;250;47.712;7.508;2022-11-18T08:40:15;2.53;;;0.93;;
527;SDS011;250;47.712;7.508;2022-11-18T08:42:42;1.70;;;0.70;;
527;SDS011;250;47.712;7.508;2022-11-18T08:45:10;1.97;;;0.90;;
527;SDS011;250;47.712;7.508;2022-11-18T08:47:37;2.37;;;0.90;;
527;SDS011;250;47.712;7.508;2022-11-18T08:50:05;1.80;;;0.80;;
527;SDS011;250;47.712;7.508;2022-11-18T08:52:34;1.20;;;0.53;;
527;SDS011;250;47.712;7.508;2022-11-18T08:55:01;3.40;;;0.90;;
527;SDS011;250;47.712;7.508;2022-11-18T08:57:29;2.37;;;0.87;;
527;SDS011;250;47.712;7.508;2022-11-18T08:59:56;3.50;;;1.90;;
527;SDS011;250;47.712;7.508;2022-11-18T09:02:25;5.13;;;1.93;;
527;SDS011;250;47.712;7.508;2022-11-18T09:04:52;2.80;;;1.77;;
527;SDS011;250;47.712;7.508;2022-11-18T09:07:19;2.20;;;0.90;;
527;SDS011;250;47.712;7.508;2022-11-18T09:09:49;2.27;;;1.40;;
527;SDS011;250;47.712;7.508;2022-11-18T09:12:16;3.23;;;1.47;;
527;SDS011;250;47.712;7.508;2022-11-18T09:14:43;1.67;;;0.83;;
527;SDS011;250;47.712;7.508;2022-11-18T09:17:11;2.97;;;1.10;;
527;SDS011;250;47.712;7.508;2022-11-18T09:19:41;1.77;;;0.97;;
527;SDS011;250;47.712;7.508;2022-11-18T09:22:08;2.83;;;1.60;;
527;SDS011;250;47.712;7.508;2022-11-18T09:24:35;2.00;;;1.03;;
527;SDS011;250;47.712;7.508;2022-11-18T09:27:02;1.20;;;0.50;;
527;SDS011;250;47.712;7.508;2022-11-18T09:29:30;1.30;;;0.70;;
527;SDS011;250;47.712;7.508;2022-11-18T09:31:58;1.70;;;1.13;;
527;SDS011;250;47.712;7.508;2022-11-18T09:34:26;1.80;;;0.90;;
527;SDS011;250;47.712;7.508;2022-11-18T09:36:55;2.90;;;0.93;;
527;SDS011;250;47.712;7.508;2022-11-18T09:39:22;1.30;;;0.70;;
527;SDS011;250;47.712;7.508;2022-11-18T09:41:53;1.77;;;1.50;;
527;SDS011;250;47.712;7.508;2022-11-18T09:44:32;3.50;;;1.43;;
527;SDS011;250;47.712;7.508;2022-11-18T09:47:14;1.40;;;0.80;;
527;SDS011;250;47.712;7.508;2022-11-18T09:49:49;6.77;;;2.90;;
527;SDS011;250;47.712;7.508;2022-11-18T09:52:19;9.53;;;1.53;;
527;SDS011;250;47.712;7.508;2022-11-18T09:54:49;2.87;;;1.53;;
527;SDS011;250;47.712;7.508;2022-11-18T09:57:18;3.33;;;1.93;;
527;SDS011;250;47.712;7.508;2022-11-18T09:59:48;3.87;;;2.00;;
527;SDS011;250;47.712;7.508;2022-11-18T10:02:29;2.80;;;1.60;;
527;SDS011;250;47.712;7.508;2022-11-18T10:05:12;2.80;;;1.27;;
527;SDS011;250;47.712;7.508;2022-11-18T10:07:45;3.30;;;1.30;;
527;SDS011;250;47.712;7.508;2022-11-18T10:10:18;1.60;;;0.90;;
527;SDS011;250;47.712;7.508;2022-11-18T10:12:51;1.20;;;0.60;;
527;SDS011;250;47.712;7.508;2022-11-18T10:15:25;1.77;;;0.70;;
527;SDS011;250;47.712;7.508;2022-11-18T10:17:59;2.67;;;0.83;;
527;SDS011;250;47.712;7.508;2022-11-18T10:20:39;1.33;;;0.70;;
527;SDS011;250;47.712;7.508;2022-11-18T10:23:13;1.30;;;0.60;;
527;SDS011;250;47.712;7.508;2022-11-18T10:25:45;1.30;;;0.70;;
527;SDS011;250;47.712;7.508;2022-11-18T10:28:16;1.40;;;0.50;;
527;SDS011;250;47.712;7.508;2022-11-18T10:30:47;1.40;;;0.60;;
527;SDS011;250;47.712;7.508;2022-11-18T10:33:22;3.50;;;0.80;;
527;SDS011;250;47.712;7.508;2022-11-18T10:36:07;1.40;;;0.70;;
527;SDS011;250;47.712;7.508;2022-11-18T10:38:38;2.07;;;0.70;;
527;SDS011;250;47.712;7.508;2022-11-18T10:41:07;2.70;;;0.60;;
527;SDS011;250;47.712;7.508;2022-11-18T10:43:48;2.43;;;0.80;;
527;SDS011;250;47.712;7.508;2022-11-18T10:46:17;1.10;;;0.40;;
527;SDS011;250;47.712;7.508;2022-11-18T10:49:07;1.47;;;0.70;;
527;SDS011;250;47.712;7.508;2022-11-18T10:51:42;1.20;;;0.50;;
527;SDS011;250;47.712;7.508;2022-11-18T10:54:15;1.17;;;0.60;;
527;SDS011;250;47.712;7.508;2022-11-18T10:56:44;3.43;;;0.63;;
527;SDS011;250;47.712;7.508;2022-11-18T10:59:16;1.80;;;0.60;;
527;SDS011;250;47.712;7.508;2022-11-18T11:01:57;1.20;;;0.50;;
527;SDS011;250;47.712;7.508;2022-11-18T11:04:27;1.50;;;0.73;;
527;SDS011;250;47.712;7.508;2022-11-18T11:06:55;2.37;;;1.10;;
527;SDS011;250;47.712;7.508;2022-11-18T11:09:28;1.77;;;0.70;;
527;SDS011;250;47.712;7.508;2022-11-18T11:11:57;2.30;;;0.63;;
527;SDS011;250;47.712;7.508;2022-11-18T11:14:26;1.27;;;0.60;;
527;SDS011;250;47.712;7.508;2022-11-18T11:16:59;1.50;;;0.70;;
527;SDS011;250;47.712;7.508;2022-11-18T11:19:34;1.40;;;0.67;;
527;SDS011;250;47.712;7.508;2022-11-18T11:22:08;1.57;;;0.83;;
527;SDS011;250;47.712;7.508;2022-11-18T11:24:38;1.20;;;0.57;;
527;SDS011;250;47.712;7.508;2022-11-18T11:30:15;1.47;;;0.53;;
527;SDS011;250;47.712;7.508;2022-11-18T11:32:51;1.30;;;0.60;;
527;SDS011;250;47.712;7.508;2022-11-18T11:35:35;1.57;;;0.70;;
527;SDS011;250;47.712;7.508;2022-11-18T11:38:13;2.20;;;0.60;;
527;SDS011;250;47.712;7.508;2022-11-18T11:40:51;3.50;;;0.93;;
527;SDS011;250;47.712;7.508;2022-11-18T11:43:27;2.07;;;0.70;;
527;SDS011;250;47.712;7.508;2022-11-18T11:49:05;2.00;;;0.90;;
527;SDS011;250;47.712;7.508;2022-11-18T11:51:44;1.70;;;0.70;;
527;SDS011;250;47.712;7.508;2022-11-18T11:54:22;2.80;;;0.50;;
527;SDS011;250;47.712;7.508;2022-11-18T11:57:01;3.20;;;0.70;;
527;SDS011;250;47.712;7.508;2022-11-18T11:59:32;2.37;;;0.63;;
527;SDS011;250;47.712;7.508;2022-11-18T12:02:19;1.90;;;0.93;;
527;SDS011;250;47.712;7.508;2022-11-18T12:05:06;3.00;;;1.00;;
527;SDS011;250;47.712;7.508;2022-11-18T12:07:42;3.30;;;0.90;;
527;SDS011;250;47.712;7.508;2022-11-18T12:10:19;2.50;;;0.77;;
527;SDS011;250;47.712;7.508;2022-11-18T12:12:56;10.67;;;0.97;;
527;SDS011;250;47.712;7.508;2022-11-18T12:15:44;1.77;;;0.70;;
527;SDS011;250;47.712;7.508;2022-11-18T12:18:19;2.40;;;0.60;;
527;SDS011;250;47.712;7.508;2022-11-18T12:20:52;1.33;;;0.70;;
527;SDS011;250;47.712;7.508;2022-11-18T12:23:20;7.57;;;0.90;;
527;SDS011;250;47.712;7.508;2022-11-18T12:25:52;2.47;;;0.87;;
527;SDS011;250;47.712;7.508;2022-11-18T12:28:31;2.83;;;1.00;;
527;SDS011;250;47.712;7.508;2022-11-18T12:34:00;2.80;;;0.87;;
527;SDS011;250;47.712;7.508;2022-11-18T12:36:43;2.40;;;0.90;;
527;SDS011;250;47.712;7.508;2022-11-18T12:42:32;4.23;;;0.90;;
527;SDS011;250;47.712;7.508;2022-11-18T12:48:32;3.23;;;0.80;;
527;SDS011;250;47.712;7.508;2022-11-18T12:54:20;4.43;;;1.60;;
527;SDS011;250;47.712;7.508;2022-11-18T12:56:54;1.60;;;0.70;;
527;SDS011;250;47.712;7.508;2022-11-18T12:59:31;3.80;;;1.43;;
527;SDS011;250;47.712;7.508;2022-11-18T13:02:14;2.17;;;0.67;;
527;SDS011;250;47.712;7.508;2022-11-18T13:05:07;2.27;;;0.80;;
527;SDS011;250;47.712;7.508;2022-11-18T13:07:38;3.60;;;1.00;;
527;SDS011;250;47.712;7.508;2022-11-18T13:10:28;1.90;;;0.90;;
527;SDS011;250;47.712;7.508;2022-11-18T13:12:57;2.07;;;0.70;;
527;SDS011;250;47.712;7.508;2022-11-18T13:15:24;2.30;;;1.40;;
527;SDS011;250;47.712;7.508;2022-11-18T13:18:25;2.07;;;0.70;;
527;SDS011;250;47.712;7.508;2022-11-18T13:20:53;4.53;;;2.27;;
527;SDS011;250;47.712;7.508;2022-11-18T13:23:28;5.10;;;1.40;;
527;SDS011;250;47.712;7.508;2022-11-18T13:26:16;4.53;;;1.33;;
527;SDS011;250;47.712;7.508;2022-11-18T13:28:50;3.13;;;0.90;;
527;SDS011;250;47.712;7.508;2022-11-18T13:31:28;1.47;;;0.80;;
527;SDS011;250;47.712;7.508;2022-11-18T13:34:02;2.23;;;0.93;;
527;SDS011;250;47.712;7.508;2022-11-18T13:36:36;1.30;;;0.53;;
527;SDS011;250;47.712;7.508;2022-11-18T13:39:15;2.10;;;0.80;;
527;SDS011;250;47.712;7.508;2022-11-18T13:41:45;4.40;;;1.10;;
527;SDS011;250;47.712;7.508;2022-11-18T13:44:23;2.80;;;0.70;;
527;SDS011;250;47.712;7.508;2022-11-18T13:46:52;2.20;;;0.73;;
527;SDS011;250;47.712;7.508;2022-11-18T13:49:27;4.30;;;1.20;;
527;SDS011;250;47.712;7.508;2022-11-18T13:52:07;1.93;;;0.67;;
527;SDS011;250;47.712;7.508;2022-11-18T13:54:37;1.93;;;0.80;;
527;SDS011;250;47.712;7.508;2022-11-18T13:57:04;3.53;;;0.93;;
527;SDS011;250;47.712;7.508;2022-11-18T13:59:32;3.10;;;0.60;;
527;SDS011;250;47.712;7.508;2022-11-18T14:01:59;2.03;;;0.73;;
527;SDS011;250;47.712;7.508;2022-11-18T14:04:28;3.83;;;1.00;;
527;SDS011;250;47.712;7.508;2022-11-18T14:09:52;3.00;;;1.20;;
527;SDS011;250;47.712;7.508;2022-11-18T14:12:23;1.90;;;0.83;;
527;SDS011;250;47.712;7.508;2022-11-18T14:14:53;3.53;;;0.90;;
527;SDS011;250;47.712;7.508;2022-11-18T14:17:48;4.30;;;1.27;;
527;SDS011;250;47.712;7.508;2022-11-18T14:20:18;4.07;;;1.13;;
527;SDS011;250;47.712;7.508;2022-11-18T14:22:45;4.30;;;1.00;;
527;SDS011;250;47.712;7.508;2022-11-18T14:25:17;3.67;;;1.13;;
527;SDS011;250;47.712;7.508;2022-11-18T14:27:49;4.50;;;1.07;;
527;SDS011;250;47.712;7.508;2022-11-18T14:30:31;4.27;;;1.40;;
527;SDS011;250;47.712;7.508;2022-11-18T14:33:10;4.07;;;1.30;;
527;SDS011;250;47.712;7.508;2022-11-18T14:35:39;5.03;;;1.50;;
527;SDS011;250;47.712;7.508;2022-11-18T14:38:12;2.13;;;1.10;;
527;SDS011;250;47.712;7.508;2022-11-18T14:40:40;5.63;;;1.30;;
527;SDS011;250;47.712;7.508;2022-11-18T14:43:08;3.33;;;1.30;;
527;SDS011;250;47.712;7.508;2022-11-18T14:45:37;4.57;;;2.10;;
527;SDS011;250;47.712;7.508;2022-11-18T14:48:05;4.23;;;2.30;;
527;SDS011;250;47.712;7.508;2022-11-18T14:50:35;4.03;;;1.17;;
527;SDS011;250;47.712;7.508;2022-11-18T14:53:03;7.40;;;2.40;;
527;SDS011;250;47.712;7.508;2022-11-18T14:55:30;4.00;;;1.60;;
527;SDS011;250;47.712;7.508;2022-11-18T14:57:58;3.30;;;1.30;;
527;SDS011;250;47.712;7.508;2022-11-18T15:00:25;2.40;;;1.63;;
527;SDS011;250;47.712;7.508;2022-11-18T15:02:52;5.83;;;1.43;;
527;SDS011;250;47.712;7.508;2022-11-18T15:05:19;3.47;;;1.70;;
527;SDS011;250;47.712;7.508;2022-11-18T15:07:47;4.60;;;1.87;;
527;SDS011;250;47.712;7.508;2022-11-18T15:10:16;3.17;;;1.60;;
527;SDS011;250;47.712;7.508;2022-11-18T15:12:43;3.77;;;1.93;;
527;SDS011;250;47.712;7.508;2022-11-18T15:15:10;3.53;;;1.20;;
527;SDS011;250;47.712;7.508;2022-11-18T15:17:37;4.17;;;1.70;;
527;SDS011;250;47.712;7.508;2022-11-18T15:20:05;5.23;;;2.10;;
527;SDS011;250;47.712;7.508;2022-11-18T15:22:35;6.97;;;1.93;;
527;SDS011;250;47.712;7.508;2022-11-18T15:25:02;4.63;;;2.40;;
527;SDS011;250;47.712;7.508;2022-11-18T15:27:31;4.47;;;2.23;;
527;SDS011;250;47.712;7.508;2022-11-18T15:29:58;6.00;;;3.57;;
527;SDS011;250;47.712;7.508;2022-11-18T15:32:25;6.63;;;4.37;;
527;SDS011;250;47.712;7.508;2022-11-18T15:34:52;7.47;;;4.33;;
527;SDS011;250;47.712;7.508;2022-11-18T15:37:20;4.67;;;2.80;;
527;SDS011;250;47.712;7.508;2022-11-18T15:39:47;3.60;;;2.00;;
527;SDS011;250;47.712;7.508;2022-11-18T15:42:14;4.60;;;1.93;;
527;SDS011;250;47.712;7.508;2022-11-18T15:44:43;4.90;;;3.00;;
527;SDS011;250;47.712;7.508;2022-11-18T15:47:10;3.17;;;1.60;;
527;SDS011;250;47.712;7.508;2022-11-18T15:49:38;5.00;;;2.33;;
527;SDS011;250;47.712;7.508;2022-11-18T15:52:08;10.33;;;6.10;;
527;SDS011;250;47.712;7.508;2022-11-18T15:54:36;5.70;;;2.70;;
527;SDS011;250;47.712;7.508;2022-11-18T15:57:03;5.10;;;2.30;;
527;SDS011;250;47.712;7.508;2022-11-18T15:59:31;3.60;;;2.40;;
527;SDS011;250;47.712;7.508;2022-11-18T16:01:59;7.20;;;4.30;;
527;SDS011;250;47.712;7.508;2022-11-18T16:04:26;5.63;;;3.90;;
527;SDS011;250;47.712;7.508;2022-11-18T16:06:53;4.00;;;1.43;;
527;SDS011;250;47.712;7.508;2022-11-18T16:09:21;4.80;;;2.43;;
527;SDS011;250;47.712;7.508;2022-11-18T16:11:48;3.80;;;2.13;;
527;SDS011;250;47.712;7.508;2022-11-18T16:14:34;5.97;;;3.30;;
527;SDS011;250;47.712;7.508;2022-11-18T16:17:05;8.93;;;5.17;;
527;SDS011;250;47.712;7.508;2022-11-18T16:19:32;10.63;;;5.60;;
527;SDS011;250;47.712;7.508;2022-11-18T16:22:00;12.13;;;6.77;;
527;SDS011;250;47.712;7.508;2022-11-18T16:24:27;7.73;;;2.37;;
527;SDS011;250;47.712;7.508;2022-11-18T16:26:55;3.97;;;1.97;;
527;SDS011;250;47.712;7.508;2022-11-18T16:29:22;6.60;;;3.90;;
527;SDS011;250;47.712;7.508;2022-11-18T16:31:50;7.60;;;4.00;;
527;SDS011;250;47.712;7.508;2022-11-18T16:34:20;5.17;;;3.27;;
527;SDS011;250;47.712;7.508;2022-11-18T16:36:51;5.43;;;3.90;;
527;SDS011;250;47.712;7.508;2022-11-18T16:39:19;7.43;;;1.97;;